sensor_id;sensor_type;location;lat;lon;timestamp;P1;durP1;ratioP1;P2;durP2;ratioP2
7150;SDS011;3617;48.836;9.172;2022-08-27T00:02:10;32.23;;;19.77;;
7150;SDS011;3617;48.836;9.172;2022-08-27T00:04:37;29.33;;;19.30;;
7150;SDS011;3617;48.836;9.172;2022-08-27T00:07:04;31.93;;;19.57;;
7150;SDS011;3617;48.836;9.172;2022-08-27T00:09:30;34.13;;;18.90;;
7150;SDS011;3617;48.836;9.172;2022-08-27T00:11:57;32.10;;;19.23;;
7150;SDS011;3617;48.836;9.172;2022-08-27T00:14:24;30.07;;;19.53;;
7150;SDS011;3617;48.836;9.172;2022-08-27T00:16:50;31.60;;;19.13;;
7150;SDS011;3617;48.836;9.172;2022-08-27T00:19:16;30.63;;;19.43;;
7150;SDS011;3617;48.836;9.172;2022-08-27T00:21:43;28.57;;;19.17;;
7150;SDS011;3617;48.836;9.172;2022-08-27T00:24:09;32.33;;;20.27;;
7150;SDS011;3617;48.836;9.172;2022-08-27T00:26:36;29.67;;;19.20;;
7150;SDS011;3617;48.836;9.172;2022-08-27T00:29:02;29.87;;;19.03;;
7150;SDS011;3617;48.836;9.172;2022-08-27T00:31:28;31.67;;;19.00;;
7150;SDS011;3617;48.836;9.172;2022-08-27T00:33:54;31.80;;;18.57;;
7150;SDS011;3617;48.836;9.172;2022-08-27T00:36:20;30.27;;;19.00;;
7150;SDS011;3617;48.836;9.172;2022-08-27T00:38:47;30.73;;;19.33;;
7150;SDS011;3617;48.836;9.172;2022-08-27T00:41:13;29.40;;;18.53;;
7150;SDS011;3617;48.836;9.172;2022-08-27T00:43:58;29.67;;;18.67;;
7150;SDS011;3617;48.836;9.172;2022-08-27T00:48:51;30.70;;;19.77;;
7150;SDS011;3617;48.836;9.172;2022-08-27T00:51:19;29.93;;;18.40;;
7150;SDS011;3617;48.836;9.172;2022-08-27T00:53:46;32.27;;;19.90;;
7150;SDS011;3617;48.836;9.172;2022-08-27T00:56:23;34.43;;;19.30;;
7150;SDS011;3617;48.836;9.172;2022-08-27T00:58:51;31.93;;;20.03;;
7150;SDS011;3617;48.836;9.172;2022-08-27T01:01:19;33.23;;;21.50;;
7150;SDS011;3617;48.836;9.172;2022-08-27T01:03:47;32.90;;;20.43;;
7150;SDS011;3617;48.836;9.172;2022-08-27T01:06:15;30.30;;;18.97;;
7150;SDS011;3617;48.836;9.172;2022-08-27T01:08:43;32.37;;;20.93;;
7150;SDS011;3617;48.836;9.172;2022-08-27T01:11:10;31.53;;;20.60;;
7150;SDS011;3617;48.836;9.172;2022-08-27T01:13:37;35.43;;;21.53;;
7150;SDS011;3617;48.836;9.172;2022-08-27T01:16:03;35.77;;;20.77;;
7150;SDS011;3617;48.836;9.172;2022-08-27T01:18:31;35.23;;;20.50;;
7150;SDS011;3617;48.836;9.172;2022-08-27T01:26:08;31.10;;;21.03;;
7150;SDS011;3617;48.836;9.172;2022-08-27T01:28:36;31.40;;;20.07;;
7150;SDS011;3617;48.836;9.172;2022-08-27T01:31:02;29.73;;;20.07;;
7150;SDS011;3617;48.836;9.172;2022-08-27T01:33:29;34.93;;;20.40;;
7150;SDS011;3617;48.836;9.172;2022-08-27T01:35:55;29.63;;;19.70;;
7150;SDS011;3617;48.836;9.172;2022-08-27T01:38:21;37.30;;;21.13;;
7150;SDS011;3617;48.836;9.172;2022-08-27T01:40:48;31.87;;;21.47;;
7150;SDS011;3617;48.836;9.172;2022-08-27T01:43:15;32.47;;;20.53;;
7150;SDS011;3617;48.836;9.172;2022-08-27T01:45:46;39.23;;;21.80;;
7150;SDS011;3617;48.836;9.172;2022-08-27T01:48:13;36.23;;;20.37;;
7150;SDS011;3617;48.836;9.172;2022-08-27T01:50:40;34.37;;;20.40;;
7150;SDS011;3617;48.836;9.172;2022-08-27T01:53:11;33.83;;;21.83;;
7150;SDS011;3617;48.836;9.172;2022-08-27T01:55:38;31.23;;;19.90;;
7150;SDS011;3617;48.836;9.172;2022-08-27T01:58:04;38.00;;;19.77;;
7150;SDS011;3617;48.836;9.172;2022-08-27T02:00:32;33.47;;;20.30;;
7150;SDS011;3617;48.836;9.172;2022-08-27T02:03:00;32.37;;;20.23;;
7150;SDS011;3617;48.836;9.172;2022-08-27T02:05:27;33.47;;;19.70;;
7150;SDS011;3617;48.836;9.172;2022-08-27T02:07:53;32.40;;;19.67;;
7150;SDS011;3617;48.836;9.172;2022-08-27T02:10:21;28.13;;;18.83;;
7150;SDS011;3617;48.836;9.172;2022-08-27T02:12:48;29.93;;;17.73;;
7150;SDS011;3617;48.836;9.172;2022-08-27T02:15:15;31.67;;;18.57;;
7150;SDS011;3617;48.836;9.172;2022-08-27T02:17:41;30.63;;;19.03;;
7150;SDS011;3617;48.836;9.172;2022-08-27T02:20:08;31.50;;;20.27;;
7150;SDS011;3617;48.836;9.172;2022-08-27T02:22:35;32.30;;;19.17;;
7150;SDS011;3617;48.836;9.172;2022-08-27T02:25:01;31.37;;;19.00;;
7150;SDS011;3617;48.836;9.172;2022-08-27T02:27:27;33.10;;;19.40;;
7150;SDS011;3617;48.836;9.172;2022-08-27T02:29:53;29.57;;;18.37;;
7150;SDS011;3617;48.836;9.172;2022-08-27T02:32:19;29.83;;;17.93;;
7150;SDS011;3617;48.836;9.172;2022-08-27T02:34:46;29.60;;;19.73;;
7150;SDS011;3617;48.836;9.172;2022-08-27T02:37:12;32.00;;;20.27;;
7150;SDS011;3617;48.836;9.172;2022-08-27T02:39:39;32.00;;;19.53;;
7150;SDS011;3617;48.836;9.172;2022-08-27T02:42:06;31.90;;;19.80;;
7150;SDS011;3617;48.836;9.172;2022-08-27T02:44:32;30.47;;;18.53;;
7150;SDS011;3617;48.836;9.172;2022-08-27T02:46:59;33.90;;;19.27;;
7150;SDS011;3617;48.836;9.172;2022-08-27T02:49:26;31.40;;;20.37;;
7150;SDS011;3617;48.836;9.172;2022-08-27T02:51:53;32.27;;;20.03;;
7150;SDS011;3617;48.836;9.172;2022-08-27T02:54:20;36.53;;;20.57;;
7150;SDS011;3617;48.836;9.172;2022-08-27T02:56:46;33.53;;;20.40;;
7150;SDS011;3617;48.836;9.172;2022-08-27T02:59:12;28.40;;;19.13;;
7150;SDS011;3617;48.836;9.172;2022-08-27T03:01:39;29.03;;;18.57;;
7150;SDS011;3617;48.836;9.172;2022-08-27T03:04:05;30.20;;;18.30;;
7150;SDS011;3617;48.836;9.172;2022-08-27T03:06:31;27.40;;;18.73;;
7150;SDS011;3617;48.836;9.172;2022-08-27T03:08:57;28.57;;;17.63;;
7150;SDS011;3617;48.836;9.172;2022-08-27T03:11:23;26.60;;;16.63;;
7150;SDS011;3617;48.836;9.172;2022-08-27T03:13:50;28.43;;;16.93;;
7150;SDS011;3617;48.836;9.172;2022-08-27T03:16:16;26.23;;;16.40;;
7150;SDS011;3617;48.836;9.172;2022-08-27T03:18:42;27.27;;;16.73;;
7150;SDS011;3617;48.836;9.172;2022-08-27T03:21:10;24.27;;;15.43;;
7150;SDS011;3617;48.836;9.172;2022-08-27T03:23:40;25.60;;;15.43;;
7150;SDS011;3617;48.836;9.172;2022-08-27T03:26:08;25.40;;;15.10;;
7150;SDS011;3617;48.836;9.172;2022-08-27T03:28:35;22.77;;;14.93;;
7150;SDS011;3617;48.836;9.172;2022-08-27T03:31:02;22.20;;;14.20;;
7150;SDS011;3617;48.836;9.172;2022-08-27T03:33:31;23.47;;;14.43;;
7150;SDS011;3617;48.836;9.172;2022-08-27T03:35:57;21.67;;;13.47;;
7150;SDS011;3617;48.836;9.172;2022-08-27T03:38:23;23.03;;;13.57;;
7150;SDS011;3617;48.836;9.172;2022-08-27T03:40:49;18.43;;;13.03;;
7150;SDS011;3617;48.836;9.172;2022-08-27T03:43:17;18.47;;;13.43;;
7150;SDS011;3617;48.836;9.172;2022-08-27T03:45:44;20.93;;;12.63;;
7150;SDS011;3617;48.836;9.172;2022-08-27T03:48:12;20.63;;;13.37;;
7150;SDS011;3617;48.836;9.172;2022-08-27T03:50:39;25.10;;;14.83;;
7150;SDS011;3617;48.836;9.172;2022-08-27T03:53:05;21.70;;;14.03;;
7150;SDS011;3617;48.836;9.172;2022-08-27T03:55:31;23.67;;;14.77;;
7150;SDS011;3617;48.836;9.172;2022-08-27T03:57:57;27.97;;;16.03;;
7150;SDS011;3617;48.836;9.172;2022-08-27T04:00:23;27.23;;;16.67;;
7150;SDS011;3617;48.836;9.172;2022-08-27T04:02:51;28.27;;;17.37;;
7150;SDS011;3617;48.836;9.172;2022-08-27T04:05:17;33.07;;;18.27;;
7150;SDS011;3617;48.836;9.172;2022-08-27T04:07:43;30.90;;;18.73;;
7150;SDS011;3617;48.836;9.172;2022-08-27T04:10:09;34.47;;;18.93;;
7150;SDS011;3617;48.836;9.172;2022-08-27T04:12:36;31.47;;;19.57;;
7150;SDS011;3617;48.836;9.172;2022-08-27T04:15:02;34.63;;;20.13;;
7150;SDS011;3617;48.836;9.172;2022-08-27T04:17:29;35.43;;;20.07;;
7150;SDS011;3617;48.836;9.172;2022-08-27T04:19:55;36.03;;;21.27;;
7150;SDS011;3617;48.836;9.172;2022-08-27T04:22:21;38.63;;;22.00;;
7150;SDS011;3617;48.836;9.172;2022-08-27T04:24:47;35.33;;;20.70;;
7150;SDS011;3617;48.836;9.172;2022-08-27T04:27:14;35.40;;;22.20;;
7150;SDS011;3617;48.836;9.172;2022-08-27T04:29:40;38.27;;;21.93;;
7150;SDS011;3617;48.836;9.172;2022-08-27T04:32:06;39.17;;;21.83;;
7150;SDS011;3617;48.836;9.172;2022-08-27T04:34:32;37.40;;;22.73;;
7150;SDS011;3617;48.836;9.172;2022-08-27T04:36:58;38.67;;;22.60;;
7150;SDS011;3617;48.836;9.172;2022-08-27T04:39:25;40.13;;;24.33;;
7150;SDS011;3617;48.836;9.172;2022-08-27T04:41:52;42.57;;;24.07;;
7150;SDS011;3617;48.836;9.172;2022-08-27T04:44:20;42.40;;;23.67;;
7150;SDS011;3617;48.836;9.172;2022-08-27T04:46:46;46.37;;;23.77;;
7150;SDS011;3617;48.836;9.172;2022-08-27T04:49:15;40.37;;;23.27;;
7150;SDS011;3617;48.836;9.172;2022-08-27T04:51:41;40.33;;;23.43;;
7150;SDS011;3617;48.836;9.172;2022-08-27T04:54:07;42.27;;;22.70;;
7150;SDS011;3617;48.836;9.172;2022-08-27T04:56:34;40.80;;;23.33;;
7150;SDS011;3617;48.836;9.172;2022-08-27T04:59:01;39.07;;;22.60;;
7150;SDS011;3617;48.836;9.172;2022-08-27T05:01:28;42.37;;;23.50;;
7150;SDS011;3617;48.836;9.172;2022-08-27T05:03:54;39.53;;;23.43;;
7150;SDS011;3617;48.836;9.172;2022-08-27T05:06:21;39.67;;;22.80;;
7150;SDS011;3617;48.836;9.172;2022-08-27T05:08:48;37.07;;;21.80;;
7150;SDS011;3617;48.836;9.172;2022-08-27T05:11:15;35.60;;;22.37;;
7150;SDS011;3617;48.836;9.172;2022-08-27T05:13:42;39.83;;;21.37;;
7150;SDS011;3617;48.836;9.172;2022-08-27T05:16:09;36.53;;;22.10;;
7150;SDS011;3617;48.836;9.172;2022-08-27T05:18:36;34.47;;;21.87;;
7150;SDS011;3617;48.836;9.172;2022-08-27T05:21:02;38.17;;;22.90;;
7150;SDS011;3617;48.836;9.172;2022-08-27T05:23:29;33.07;;;20.70;;
7150;SDS011;3617;48.836;9.172;2022-08-27T05:25:55;34.67;;;21.77;;
7150;SDS011;3617;48.836;9.172;2022-08-27T05:28:22;35.83;;;22.50;;
7150;SDS011;3617;48.836;9.172;2022-08-27T05:30:49;36.17;;;22.67;;
7150;SDS011;3617;48.836;9.172;2022-08-27T05:33:17;39.83;;;22.13;;
7150;SDS011;3617;48.836;9.172;2022-08-27T05:35:44;35.60;;;22.23;;
7150;SDS011;3617;48.836;9.172;2022-08-27T05:38:11;39.00;;;22.83;;
7150;SDS011;3617;48.836;9.172;2022-08-27T05:40:37;36.13;;;23.00;;
7150;SDS011;3617;48.836;9.172;2022-08-27T05:43:04;36.30;;;21.53;;
7150;SDS011;3617;48.836;9.172;2022-08-27T05:45:31;40.57;;;22.57;;
7150;SDS011;3617;48.836;9.172;2022-08-27T05:47:57;41.03;;;23.10;;
7150;SDS011;3617;48.836;9.172;2022-08-27T05:50:24;36.47;;;22.77;;
7150;SDS011;3617;48.836;9.172;2022-08-27T05:52:50;40.67;;;23.13;;
7150;SDS011;3617;48.836;9.172;2022-08-27T05:55:16;36.30;;;23.10;;
7150;SDS011;3617;48.836;9.172;2022-08-27T05:57:42;42.20;;;23.57;;
7150;SDS011;3617;48.836;9.172;2022-08-27T06:00:08;35.43;;;22.90;;
7150;SDS011;3617;48.836;9.172;2022-08-27T06:02:53;38.00;;;22.83;;
7150;SDS011;3617;48.836;9.172;2022-08-27T06:05:19;34.90;;;22.70;;
7150;SDS011;3617;48.836;9.172;2022-08-27T06:07:45;37.93;;;23.10;;
7150;SDS011;3617;48.836;9.172;2022-08-27T06:10:11;35.97;;;22.50;;
7150;SDS011;3617;48.836;9.172;2022-08-27T06:12:38;35.83;;;22.73;;
7150;SDS011;3617;48.836;9.172;2022-08-27T06:15:04;36.30;;;21.95;;
7150;SDS011;3617;48.836;9.172;2022-08-27T06:17:30;38.07;;;23.70;;
7150;SDS011;3617;48.836;9.172;2022-08-27T06:19:56;37.05;;;22.20;;
7150;SDS011;3617;48.836;9.172;2022-08-27T06:22:22;37.10;;;22.00;;
7150;SDS011;3617;48.836;9.172;2022-08-27T06:24:48;33.63;;;21.10;;
7150;SDS011;3617;48.836;9.172;2022-08-27T06:27:15;31.87;;;20.50;;
7150;SDS011;3617;48.836;9.172;2022-08-27T06:29:42;31.47;;;20.67;;
7150;SDS011;3617;48.836;9.172;2022-08-27T06:32:09;35.67;;;21.17;;
7150;SDS011;3617;48.836;9.172;2022-08-27T06:34:36;30.42;;;20.00;;
7150;SDS011;3617;48.836;9.172;2022-08-27T06:37:02;33.88;;;20.63;;
7150;SDS011;3617;48.836;9.172;2022-08-27T06:39:29;29.45;;;20.77;;
7150;SDS011;3617;48.836;9.172;2022-08-27T06:41:55;30.77;;;19.85;;
7150;SDS011;3617;48.836;9.172;2022-08-27T06:44:21;33.57;;;19.23;;
7150;SDS011;3617;48.836;9.172;2022-08-27T06:46:48;29.70;;;19.77;;
7150;SDS011;3617;48.836;9.172;2022-08-27T06:49:15;28.98;;;18.55;;
7150;SDS011;3617;48.836;9.172;2022-08-27T06:51:43;28.38;;;19.20;;
7150;SDS011;3617;48.836;9.172;2022-08-27T06:54:09;28.25;;;18.45;;
7150;SDS011;3617;48.836;9.172;2022-08-27T06:56:36;30.90;;;18.08;;
7150;SDS011;3617;48.836;9.172;2022-08-27T06:59:04;30.48;;;18.70;;
7150;SDS011;3617;48.836;9.172;2022-08-27T07:01:33;25.65;;;17.50;;
7150;SDS011;3617;48.836;9.172;2022-08-27T07:04:01;25.08;;;17.85;;
7150;SDS011;3617;48.836;9.172;2022-08-27T07:06:29;26.52;;;17.90;;
7150;SDS011;3617;48.836;9.172;2022-08-27T07:08:55;26.33;;;17.73;;
7150;SDS011;3617;48.836;9.172;2022-08-27T07:11:21;30.98;;;18.90;;
7150;SDS011;3617;48.836;9.172;2022-08-27T07:13:48;31.25;;;18.05;;
7150;SDS011;3617;48.836;9.172;2022-08-27T07:16:15;26.42;;;17.60;;
7150;SDS011;3617;48.836;9.172;2022-08-27T07:18:42;25.33;;;17.20;;
7150;SDS011;3617;48.836;9.172;2022-08-27T07:21:09;32.70;;;17.90;;
7150;SDS011;3617;48.836;9.172;2022-08-27T07:23:36;30.65;;;18.90;;
7150;SDS011;3617;48.836;9.172;2022-08-27T07:26:07;27.92;;;17.95;;
7150;SDS011;3617;48.836;9.172;2022-08-27T07:28:34;27.58;;;18.38;;
7150;SDS011;3617;48.836;9.172;2022-08-27T07:31:00;29.92;;;19.38;;
7150;SDS011;3617;48.836;9.172;2022-08-27T07:33:26;33.50;;;20.23;;
7150;SDS011;3617;48.836;9.172;2022-08-27T07:35:52;36.08;;;19.08;;
7150;SDS011;3617;48.836;9.172;2022-08-27T07:38:18;32.72;;;19.98;;
7150;SDS011;3617;48.836;9.172;2022-08-27T07:40:44;33.90;;;20.85;;
7150;SDS011;3617;48.836;9.172;2022-08-27T07:43:11;31.38;;;20.73;;
7150;SDS011;3617;48.836;9.172;2022-08-27T07:45:59;30.30;;;19.90;;
7150;SDS011;3617;48.836;9.172;2022-08-27T07:48:25;31.85;;;21.02;;
7150;SDS011;3617;48.836;9.172;2022-08-27T07:50:52;34.65;;;21.20;;
7150;SDS011;3617;48.836;9.172;2022-08-27T07:53:18;31.92;;;20.58;;
7150;SDS011;3617;48.836;9.172;2022-08-27T07:55:45;30.33;;;21.30;;
7150;SDS011;3617;48.836;9.172;2022-08-27T07:58:11;32.85;;;20.77;;
7150;SDS011;3617;48.836;9.172;2022-08-27T08:00:41;34.95;;;20.85;;
7150;SDS011;3617;48.836;9.172;2022-08-27T08:03:08;30.98;;;20.20;;
7150;SDS011;3617;48.836;9.172;2022-08-27T08:05:34;32.85;;;22.10;;
7150;SDS011;3617;48.836;9.172;2022-08-27T08:08:00;30.70;;;20.60;;
7150;SDS011;3617;48.836;9.172;2022-08-27T08:10:26;31.07;;;20.00;;
7150;SDS011;3617;48.836;9.172;2022-08-27T08:12:52;32.38;;;22.60;;
7150;SDS011;3617;48.836;9.172;2022-08-27T08:15:18;33.00;;;21.33;;
7150;SDS011;3617;48.836;9.172;2022-08-27T08:17:44;36.05;;;21.92;;
7150;SDS011;3617;48.836;9.172;2022-08-27T08:20:10;37.30;;;22.47;;
7150;SDS011;3617;48.836;9.172;2022-08-27T08:22:37;40.03;;;22.58;;
7150;SDS011;3617;48.836;9.172;2022-08-27T08:25:04;34.75;;;21.50;;
7150;SDS011;3617;48.836;9.172;2022-08-27T08:27:30;33.05;;;21.05;;
7150;SDS011;3617;48.836;9.172;2022-08-27T08:29:57;35.92;;;21.50;;
7150;SDS011;3617;48.836;9.172;2022-08-27T08:32:23;38.30;;;21.60;;
7150;SDS011;3617;48.836;9.172;2022-08-27T08:34:49;34.22;;;21.42;;
7150;SDS011;3617;48.836;9.172;2022-08-27T08:37:15;35.97;;;22.17;;
7150;SDS011;3617;48.836;9.172;2022-08-27T08:39:41;35.95;;;22.38;;
7150;SDS011;3617;48.836;9.172;2022-08-27T08:42:09;37.67;;;21.77;;
7150;SDS011;3617;48.836;9.172;2022-08-27T08:44:45;35.38;;;21.15;;
7150;SDS011;3617;48.836;9.172;2022-08-27T08:47:24;33.33;;;21.38;;
7150;SDS011;3617;48.836;9.172;2022-08-27T08:55:10;34.28;;;20.85;;
7150;SDS011;3617;48.836;9.172;2022-08-27T08:57:39;32.97;;;21.25;;
7150;SDS011;3617;48.836;9.172;2022-08-27T09:00:09;34.45;;;20.98;;
7150;SDS011;3617;48.836;9.172;2022-08-27T09:02:39;33.15;;;20.23;;
7150;SDS011;3617;48.836;9.172;2022-08-27T09:05:06;30.85;;;18.05;;
7150;SDS011;3617;48.836;9.172;2022-08-27T09:07:44;29.77;;;19.02;;
7150;SDS011;3617;48.836;9.172;2022-08-27T09:12:38;36.40;;;19.98;;
7150;SDS011;3617;48.836;9.172;2022-08-27T09:15:11;30.17;;;19.67;;
7150;SDS011;3617;48.836;9.172;2022-08-27T09:17:38;27.50;;;15.68;;
7150;SDS011;3617;48.836;9.172;2022-08-27T09:20:06;25.00;;;15.20;;
7150;SDS011;3617;48.836;9.172;2022-08-27T09:23:17;24.80;;;16.03;;
7150;SDS011;3617;48.836;9.172;2022-08-27T09:25:23;24.57;;;16.27;;
7150;SDS011;3617;48.836;9.172;2022-08-27T09:27:50;26.98;;;16.15;;
7150;SDS011;3617;48.836;9.172;2022-08-27T09:30:18;27.97;;;18.37;;
7150;SDS011;3617;48.836;9.172;2022-08-27T09:32:51;25.37;;;17.00;;
7150;SDS011;3617;48.836;9.172;2022-08-27T09:35:19;28.67;;;17.73;;
7150;SDS011;3617;48.836;9.172;2022-08-27T09:37:46;24.92;;;15.88;;
7150;SDS011;3617;48.836;9.172;2022-08-27T09:42:50;28.10;;;17.75;;
7150;SDS011;3617;48.836;9.172;2022-08-27T09:45:19;33.60;;;19.15;;
7150;SDS011;3617;48.836;9.172;2022-08-27T09:47:47;33.35;;;19.92;;
7150;SDS011;3617;48.836;9.172;2022-08-27T09:50:15;30.58;;;19.50;;
7150;SDS011;3617;48.836;9.172;2022-08-27T09:58:16;30.40;;;19.17;;
7150;SDS011;3617;48.836;9.172;2022-08-27T10:00:43;31.83;;;18.98;;
7150;SDS011;3617;48.836;9.172;2022-08-27T10:03:09;33.03;;;19.20;;
7150;SDS011;3617;48.836;9.172;2022-08-27T10:05:42;32.17;;;18.98;;
7150;SDS011;3617;48.836;9.172;2022-08-27T10:08:26;28.87;;;18.13;;
7150;SDS011;3617;48.836;9.172;2022-08-27T10:10:55;30.13;;;19.10;;
7150;SDS011;3617;48.836;9.172;2022-08-27T10:13:26;29.65;;;18.88;;
7150;SDS011;3617;48.836;9.172;2022-08-27T10:21:23;29.63;;;18.05;;
7150;SDS011;3617;48.836;9.172;2022-08-27T10:24:10;31.10;;;18.25;;
7150;SDS011;3617;48.836;9.172;2022-08-27T10:26:43;32.50;;;19.57;;
7150;SDS011;3617;48.836;9.172;2022-08-27T10:29:33;29.87;;;18.77;;
7150;SDS011;3617;48.836;9.172;2022-08-27T10:32:08;29.47;;;17.93;;
7150;SDS011;3617;48.836;9.172;2022-08-27T10:42:49;30.50;;;18.63;;
7150;SDS011;3617;48.836;9.172;2022-08-27T10:45:31;30.83;;;17.70;;
7150;SDS011;3617;48.836;9.172;2022-08-27T10:48:15;28.63;;;18.77;;
7150;SDS011;3617;48.836;9.172;2022-08-27T10:53:35;26.88;;;18.15;;
7150;SDS011;3617;48.836;9.172;2022-08-27T10:56:05;27.50;;;17.88;;
7150;SDS011;3617;48.836;9.172;2022-08-27T11:01:02;31.52;;;19.42;;
7150;SDS011;3617;48.836;9.172;2022-08-27T11:06:13;27.70;;;18.73;;
7150;SDS011;3617;48.836;9.172;2022-08-27T11:08:42;30.95;;;19.10;;
7150;SDS011;3617;48.836;9.172;2022-08-27T11:11:14;29.38;;;20.00;;
7150;SDS011;3617;48.836;9.172;2022-08-27T11:13:45;32.45;;;19.10;;
7150;SDS011;3617;48.836;9.172;2022-08-27T11:16:38;31.83;;;19.67;;
7150;SDS011;3617;48.836;9.172;2022-08-27T11:19:02;32.47;;;19.37;;
7150;SDS011;3617;48.836;9.172;2022-08-27T11:21:33;32.00;;;20.75;;
7150;SDS011;3617;48.836;9.172;2022-08-27T11:24:10;33.25;;;20.98;;
7150;SDS011;3617;48.836;9.172;2022-08-27T11:26:39;38.72;;;21.42;;
7150;SDS011;3617;48.836;9.172;2022-08-27T11:29:09;35.35;;;20.77;;
7150;SDS011;3617;48.836;9.172;2022-08-27T11:31:40;36.78;;;21.52;;
7150;SDS011;3617;48.836;9.172;2022-08-27T11:42:15;35.28;;;20.80;;
7150;SDS011;3617;48.836;9.172;2022-08-27T11:44:43;31.35;;;19.75;;
7150;SDS011;3617;48.836;9.172;2022-08-27T11:49:42;34.92;;;22.00;;
7150;SDS011;3617;48.836;9.172;2022-08-27T11:52:08;34.60;;;20.95;;
7150;SDS011;3617;48.836;9.172;2022-08-27T11:57:14;29.50;;;20.58;;
7150;SDS011;3617;48.836;9.172;2022-08-27T11:59:40;35.25;;;21.02;;
7150;SDS011;3617;48.836;9.172;2022-08-27T12:02:16;32.65;;;20.88;;
7150;SDS011;3617;48.836;9.172;2022-08-27T12:04:43;36.83;;;21.55;;
7150;SDS011;3617;48.836;9.172;2022-08-27T12:15:14;34.25;;;21.77;;
7150;SDS011;3617;48.836;9.172;2022-08-27T12:17:52;33.80;;;20.15;;
7150;SDS011;3617;48.836;9.172;2022-08-27T12:20:42;36.55;;;23.00;;
7150;SDS011;3617;48.836;9.172;2022-08-27T12:25:59;38.33;;;21.63;;
7150;SDS011;3617;48.836;9.172;2022-08-27T12:28:25;35.40;;;22.08;;
7150;SDS011;3617;48.836;9.172;2022-08-27T12:30:52;30.75;;;20.73;;
7150;SDS011;3617;48.836;9.172;2022-08-27T12:33:32;34.20;;;22.30;;
7150;SDS011;3617;48.836;9.172;2022-08-27T12:36:09;35.42;;;21.25;;
7150;SDS011;3617;48.836;9.172;2022-08-27T12:38:40;32.80;;;20.55;;
7150;SDS011;3617;48.836;9.172;2022-08-27T12:41:08;27.23;;;18.77;;
7150;SDS011;3617;48.836;9.172;2022-08-27T12:43:35;28.20;;;18.33;;
7150;SDS011;3617;48.836;9.172;2022-08-27T12:48:37;27.70;;;19.02;;
7150;SDS011;3617;48.836;9.172;2022-08-27T12:51:23;28.70;;;19.38;;
7150;SDS011;3617;48.836;9.172;2022-08-27T13:01:26;32.58;;;19.48;;
7150;SDS011;3617;48.836;9.172;2022-08-27T13:03:55;27.02;;;19.02;;
7150;SDS011;3617;48.836;9.172;2022-08-27T13:06:27;27.42;;;18.90;;
7150;SDS011;3617;48.836;9.172;2022-08-27T13:09:04;25.48;;;17.67;;
7150;SDS011;3617;48.836;9.172;2022-08-27T13:11:31;27.38;;;17.45;;
7150;SDS011;3617;48.836;9.172;2022-08-27T13:14:05;26.65;;;18.02;;
7150;SDS011;3617;48.836;9.172;2022-08-27T13:16:31;27.58;;;18.05;;
7150;SDS011;3617;48.836;9.172;2022-08-27T13:18:57;29.30;;;17.60;;
7150;SDS011;3617;48.836;9.172;2022-08-27T13:21:25;28.58;;;18.25;;
7150;SDS011;3617;48.836;9.172;2022-08-27T13:23:56;25.45;;;18.10;;
7150;SDS011;3617;48.836;9.172;2022-08-27T13:26:23;25.17;;;17.25;;
7150;SDS011;3617;48.836;9.172;2022-08-27T13:28:50;25.77;;;17.95;;
7150;SDS011;3617;48.836;9.172;2022-08-27T13:31:17;31.55;;;18.70;;
7150;SDS011;3617;48.836;9.172;2022-08-27T13:33:43;25.67;;;17.80;;
7150;SDS011;3617;48.836;9.172;2022-08-27T13:36:09;23.92;;;17.38;;
7150;SDS011;3617;48.836;9.172;2022-08-27T13:38:37;24.67;;;17.65;;
7150;SDS011;3617;48.836;9.172;2022-08-27T13:41:05;27.63;;;19.30;;
7150;SDS011;3617;48.836;9.172;2022-08-27T13:43:33;25.10;;;18.23;;
7150;SDS011;3617;48.836;9.172;2022-08-27T13:46:00;29.88;;;18.75;;
7150;SDS011;3617;48.836;9.172;2022-08-27T13:48:27;24.52;;;18.23;;
7150;SDS011;3617;48.836;9.172;2022-08-27T13:50:54;26.92;;;18.70;;
7150;SDS011;3617;48.836;9.172;2022-08-27T13:53:22;26.35;;;17.58;;
7150;SDS011;3617;48.836;9.172;2022-08-27T13:56:08;26.05;;;18.90;;
7150;SDS011;3617;48.836;9.172;2022-08-27T13:58:34;26.40;;;18.20;;
7150;SDS011;3617;48.836;9.172;2022-08-27T14:01:08;28.63;;;18.92;;
7150;SDS011;3617;48.836;9.172;2022-08-27T14:03:35;28.92;;;18.73;;
7150;SDS011;3617;48.836;9.172;2022-08-27T14:06:03;24.13;;;17.27;;
7150;SDS011;3617;48.836;9.172;2022-08-27T14:08:31;25.50;;;18.00;;
7150;SDS011;3617;48.836;9.172;2022-08-27T14:13:24;25.90;;;17.98;;
7150;SDS011;3617;48.836;9.172;2022-08-27T14:15:54;25.08;;;17.33;;
7150;SDS011;3617;48.836;9.172;2022-08-27T14:18:22;24.85;;;17.73;;
7150;SDS011;3617;48.836;9.172;2022-08-27T14:20:48;21.52;;;16.25;;
7150;SDS011;3617;48.836;9.172;2022-08-27T14:23:15;23.58;;;17.75;;
7150;SDS011;3617;48.836;9.172;2022-08-27T14:25:41;26.00;;;17.58;;
7150;SDS011;3617;48.836;9.172;2022-08-27T14:28:07;29.40;;;18.73;;
7150;SDS011;3617;48.836;9.172;2022-08-27T14:30:33;27.20;;;17.35;;
7150;SDS011;3617;48.836;9.172;2022-08-27T14:32:59;23.17;;;17.55;;
7150;SDS011;3617;48.836;9.172;2022-08-27T14:35:27;22.88;;;15.75;;
7150;SDS011;3617;48.836;9.172;2022-08-27T14:37:54;24.27;;;16.45;;
7150;SDS011;3617;48.836;9.172;2022-08-27T14:40:20;23.27;;;16.40;;
7150;SDS011;3617;48.836;9.172;2022-08-27T14:42:46;23.70;;;16.83;;
7150;SDS011;3617;48.836;9.172;2022-08-27T14:45:12;24.00;;;16.55;;
7150;SDS011;3617;48.836;9.172;2022-08-27T14:47:38;21.05;;;15.57;;
7150;SDS011;3617;48.836;9.172;2022-08-27T14:50:08;20.30;;;15.20;;
7150;SDS011;3617;48.836;9.172;2022-08-27T14:52:35;21.60;;;15.45;;
7150;SDS011;3617;48.836;9.172;2022-08-27T14:55:03;22.33;;;16.05;;
7150;SDS011;3617;48.836;9.172;2022-08-27T14:57:30;23.42;;;15.38;;
7150;SDS011;3617;48.836;9.172;2022-08-27T14:59:56;20.33;;;14.38;;
7150;SDS011;3617;48.836;9.172;2022-08-27T15:02:22;21.25;;;15.45;;
7150;SDS011;3617;48.836;9.172;2022-08-27T15:04:48;23.23;;;14.90;;
7150;SDS011;3617;48.836;9.172;2022-08-27T15:07:14;19.50;;;14.88;;
7150;SDS011;3617;48.836;9.172;2022-08-27T15:09:41;21.35;;;14.20;;
7150;SDS011;3617;48.836;9.172;2022-08-27T15:12:07;21.38;;;14.50;;
7150;SDS011;3617;48.836;9.172;2022-08-27T15:14:34;19.10;;;14.20;;
7150;SDS011;3617;48.836;9.172;2022-08-27T15:17:01;17.83;;;13.30;;
7150;SDS011;3617;48.836;9.172;2022-08-27T15:19:29;22.10;;;13.60;;
7150;SDS011;3617;48.836;9.172;2022-08-27T15:21:56;21.67;;;14.38;;
7150;SDS011;3617;48.836;9.172;2022-08-27T15:24:25;23.45;;;14.50;;
7150;SDS011;3617;48.836;9.172;2022-08-27T15:26:53;20.83;;;14.07;;
7150;SDS011;3617;48.836;9.172;2022-08-27T15:29:21;19.63;;;13.98;;
7150;SDS011;3617;48.836;9.172;2022-08-27T15:31:47;21.95;;;15.50;;
7150;SDS011;3617;48.836;9.172;2022-08-27T15:34:14;20.75;;;16.15;;
7150;SDS011;3617;48.836;9.172;2022-08-27T15:36:40;25.08;;;16.02;;
7150;SDS011;3617;48.836;9.172;2022-08-27T15:39:06;21.33;;;15.30;;
7150;SDS011;3617;48.836;9.172;2022-08-27T15:41:32;21.35;;;15.55;;
7150;SDS011;3617;48.836;9.172;2022-08-27T15:43:58;18.83;;;13.52;;
7150;SDS011;3617;48.836;9.172;2022-08-27T15:46:24;22.80;;;15.18;;
7150;SDS011;3617;48.836;9.172;2022-08-27T15:48:51;19.67;;;14.93;;
7150;SDS011;3617;48.836;9.172;2022-08-27T15:51:20;21.63;;;14.98;;
7150;SDS011;3617;48.836;9.172;2022-08-27T15:53:47;22.55;;;14.27;;
7150;SDS011;3617;48.836;9.172;2022-08-27T15:56:13;19.95;;;14.73;;
7150;SDS011;3617;48.836;9.172;2022-08-27T15:58:39;23.27;;;14.65;;
7150;SDS011;3617;48.836;9.172;2022-08-27T16:01:09;20.00;;;14.73;;
7150;SDS011;3617;48.836;9.172;2022-08-27T16:03:36;24.40;;;16.70;;
7150;SDS011;3617;48.836;9.172;2022-08-27T16:06:03;24.25;;;15.95;;
7150;SDS011;3617;48.836;9.172;2022-08-27T16:08:29;25.33;;;16.77;;
7150;SDS011;3617;48.836;9.172;2022-08-27T16:10:56;23.30;;;17.15;;
7150;SDS011;3617;48.836;9.172;2022-08-27T16:13:23;24.45;;;16.35;;
7150;SDS011;3617;48.836;9.172;2022-08-27T16:15:50;23.92;;;17.73;;